createdAt,value
2019-04-23T00:01:49.251Z,48.47
2019-04-23T00:04:18.105Z,48.36
2019-04-23T00:07:23.912Z,48.39
2019-04-23T00:09:34.096Z,48.36
2019-04-23T00:12:13.110Z,48.27
2019-04-23T00:14:52.445Z,48.27
2019-04-23T00:17:22.629Z,48.33
2019-04-23T00:19:58.266Z,48.24
2019-04-23T00:22:36.621Z,48.37
2019-04-23T00:28:15.848Z,48.12
2019-04-23T00:31:02.733Z,48.06
2019-04-23T00:33:20.244Z,48.00
2019-04-23T00:35:49.877Z,47.97
2019-04-23T00:41:05.857Z,47.65
2019-04-23T00:43:32.885Z,47.58
2019-04-23T00:46:10.512Z,47.24
2019-04-23T00:48:54.256Z,47.24
2019-04-23T00:51:27.431Z,47.08
2019-04-23T00:53:58.696Z,47.01
2019-04-23T00:56:38.686Z,47.04
2019-04-23T00:59:08.266Z,47.20
2019-04-23T01:01:54.449Z,47.23
2019-04-23T01:04:12.268Z,47.33
2019-04-23T01:06:54.903Z,47.51
2019-04-23T01:09:22.219Z,47.60
2019-04-23T01:12:00.894Z,47.59
2019-04-23T01:14:36.143Z,47.64
2019-04-23T01:17:22.539Z,47.82
2019-04-23T01:19:49.872Z,47.73
2019-04-23T01:22:08.826Z,47.52
2019-04-23T01:24:50.847Z,47.44
2019-04-23T01:28:08.080Z,47.58
2019-04-23T01:30:40.868Z,47.55
2019-04-23T01:33:27.141Z,47.49
2019-04-23T01:36:03.267Z,47.47
2019-04-23T01:38:35.653Z,47.37
2019-04-23T01:41:01.756Z,47.22
2019-04-23T01:43:41.003Z,47.17
2019-04-23T01:46:16.297Z,46.99
2019-04-23T01:48:51.993Z,47.03
2019-04-23T01:51:25.910Z,46.94
2019-04-23T01:53:56.650Z,46.75
2019-04-23T01:56:36.883Z,46.72
2019-04-23T01:59:16.113Z,46.64
2019-04-23T02:01:51.865Z,46.69
2019-04-23T02:04:22.924Z,46.62
2019-04-23T02:07:00.326Z,46.76
2019-04-23T02:09:36.090Z,46.77
2019-04-23T02:12:07.518Z,46.70
2019-04-23T02:14:41.562Z,46.72
2019-04-23T02:17:15.820Z,46.75
2019-04-23T02:20:01.950Z,46.64
2019-04-23T02:23:09.833Z,46.71
2019-04-23T02:28:10.697Z,46.66
2019-04-23T02:33:34.476Z,46.87
2019-04-23T02:36:07.732Z,46.97
2019-04-23T02:38:46.340Z,47.06
2019-04-23T02:41:12.648Z,47.13
2019-04-23T02:43:33.623Z,47.08
2019-04-23T02:46:15.223Z,47.03
2019-04-23T02:48:56.255Z,47.02
2019-04-23T02:51:37.048Z,47.22
2019-04-23T02:54:28.833Z,47.28
2019-04-23T02:59:51.404Z,47.38
2019-04-23T03:02:05.800Z,47.43
2019-04-23T03:04:35.058Z,47.47
2019-04-23T03:07:16.128Z,47.48
2019-04-23T03:12:31.434Z,47.59
2019-04-23T03:15:00.732Z,47.73
2019-04-23T03:17:36.568Z,47.71
2019-04-23T03:20:21.273Z,47.61
2019-04-23T03:23:16.565Z,47.76
2019-04-23T03:25:49.865Z,47.91
2019-04-23T03:28:26.970Z,47.73
2019-04-23T03:32:37.630Z,47.81
2019-04-23T03:41:23.509Z,48.01
2019-04-23T03:48:56.637Z,48.02
2019-04-23T03:54:26.221Z,47.94
2019-04-23T04:09:47.855Z,47.93
2019-04-23T04:12:21.049Z,48.00
2019-04-23T04:25:14.595Z,46.74
2019-04-23T04:27:53.816Z,46.77
2019-04-23T04:33:09.403Z,46.43
2019-04-23T04:35:39.026Z,46.74
2019-04-23T04:38:16.531Z,46.49
2019-04-23T04:43:24.925Z,46.26
2019-04-23T04:48:27.253Z,46.24
2019-04-23T04:56:29.184Z,46.37
2019-04-23T04:59:06.117Z,46.21
2019-04-23T05:03:43.713Z,46.28
2019-04-23T05:06:38.702Z,45.89
2019-04-23T05:09:12.026Z,45.84
2019-04-23T05:14:26.927Z,45.33
2019-04-23T05:19:40.812Z,45.07
2019-04-23T05:22:07.011Z,45.08
2019-04-23T05:27:15.340Z,44.68
2019-04-23T05:29:46.598Z,44.48
2019-04-23T05:32:19.429Z,44.45
2019-04-23T05:35:00.580Z,44.02
2019-04-23T05:37:47.439Z,44.18
2019-04-23T05:40:02.623Z,44.01
2019-04-23T05:42:41.253Z,43.85
2019-04-23T05:45:30.202Z,43.59
2019-04-23T05:47:52.042Z,43.50
2019-04-23T05:52:59.491Z,43.27
2019-04-23T05:55:26.970Z,43.07
2019-04-23T05:58:14.849Z,42.82
2019-04-23T06:00:44.908Z,42.75
2019-04-23T06:03:41.835Z,42.71
2019-04-23T06:06:01.224Z,42.31
2019-04-23T06:08:33.600Z,42.25
2019-04-23T06:11:11.811Z,42.18
2019-04-23T06:13:44.574Z,41.99
2019-04-23T06:16:17.873Z,41.66
2019-04-23T06:21:25.273Z,41.78
2019-04-23T06:23:58.312Z,41.61
2019-04-23T06:29:15.484Z,41.02
2019-04-23T06:31:44.072Z,40.99
2019-04-23T06:34:20.225Z,41.02
2019-04-23T06:36:54.128Z,40.71
2019-04-23T06:39:23.958Z,40.31
2019-04-23T06:44:37.253Z,40.05
2019-04-23T06:49:54.535Z,39.18
2019-04-23T07:00:06.312Z,39.36
2019-04-23T07:02:42.164Z,39.32
2019-04-23T07:05:17.526Z,39.23
2019-04-23T07:07:55.218Z,38.78
2019-04-23T07:10:26.733Z,39.00
2019-04-23T07:13:04.863Z,38.84
2019-04-23T07:18:11.049Z,38.25
2019-04-23T07:20:50.490Z,38.04
2019-04-23T07:23:28.450Z,38.55
2019-04-23T07:26:03.778Z,38.03
2019-04-23T07:28:49.826Z,37.77
2019-04-23T07:31:07.773Z,37.92
2019-04-23T07:33:44.244Z,36.62
2019-04-23T07:36:17.112Z,36.49
2019-04-23T07:39:23.491Z,36.59
2019-04-23T07:42:24.902Z,36.02
2019-04-23T07:45:27.988Z,35.76
2019-04-23T07:53:22.966Z,34.42
2019-04-23T07:56:07.716Z,34.78
2019-04-23T08:03:44.594Z,34.65
2019-04-23T08:06:13.499Z,34.26
2019-04-23T08:08:54.663Z,34.23
2019-04-23T08:11:33.238Z,34.46
2019-04-23T08:19:05.768Z,34.62
2019-04-23T08:21:43.864Z,34.99
2019-04-23T08:24:45.060Z,34.50
2019-04-23T08:27:18.633Z,34.29
2019-04-23T08:29:55.793Z,32.93
2019-04-23T08:32:29.525Z,33.75
2019-04-23T08:35:06.475Z,34.16
2019-04-23T08:40:20.888Z,33.39
2019-04-23T08:42:52.877Z,33.78
2019-04-23T08:45:46.241Z,33.66
2019-04-23T08:48:27.792Z,33.26
2019-04-23T08:50:57.257Z,33.32
2019-04-23T08:53:35.740Z,32.86
2019-04-23T08:56:07.710Z,32.91
2019-04-23T08:58:34.272Z,32.56
2019-04-23T09:03:47.872Z,33.07
2019-04-23T09:06:21.687Z,32.68
2019-04-23T09:08:56.956Z,32.67
2019-04-23T09:14:07.508Z,31.67
2019-04-23T09:16:55.699Z,32.41
2019-04-23T09:22:09.351Z,33.87
2019-04-23T09:24:33.372Z,32.35
2019-04-23T09:27:16.430Z,31.92
2019-04-23T09:29:51.439Z,31.97
2019-04-23T09:32:36.701Z,31.70
2019-04-23T09:35:31.145Z,31.99
2019-04-23T09:38:34.458Z,32.37
2019-04-23T09:41:39.915Z,32.03
2019-04-23T09:46:57.365Z,30.63
2019-04-23T09:49:31.246Z,30.75
2019-04-23T09:52:05.726Z,30.89
2019-04-23T09:54:33.918Z,30.87
2019-04-23T09:57:03.886Z,30.59
2019-04-23T09:59:43.083Z,31.04
2019-04-23T10:02:05.523Z,30.15
2019-04-23T10:04:39.776Z,30.35
2019-04-23T10:07:15.239Z,30.12
2019-04-23T10:09:34.108Z,30.05
2019-04-23T10:12:09.289Z,30.10
2019-04-23T10:14:51.825Z,29.28
2019-04-23T10:17:18.087Z,30.41
2019-04-23T10:19:52.885Z,30.21
2019-04-23T10:22:27.257Z,30.86
2019-04-23T10:25:01.318Z,30.41
2019-04-23T10:27:35.111Z,31.75
2019-04-23T10:30:12.257Z,31.40
2019-04-23T10:32:45.322Z,31.80
2019-04-23T10:35:29.261Z,31.85
2019-04-23T10:37:58.591Z,32.13
2019-04-23T10:40:32.585Z,31.87
2019-04-23T10:43:03.901Z,31.66
2019-04-23T10:46:16.974Z,31.58
2019-04-23T10:49:31.612Z,31.24
2019-04-23T10:52:02.562Z,31.76
2019-04-23T10:57:03.856Z,31.16
2019-04-23T11:05:11.847Z,31.29
2019-04-23T11:12:45.773Z,31.58
2019-04-23T11:15:33.736Z,31.61
2019-04-23T11:17:52.174Z,31.66
2019-04-23T11:23:06.500Z,33.13
2019-04-23T11:25:44.848Z,32.64
2019-04-23T11:31:03.504Z,31.71
2019-04-23T11:33:37.954Z,32.01
2019-04-23T11:38:56.256Z,30.60
2019-04-23T11:41:27.626Z,30.91
2019-04-23T11:43:54.941Z,31.03
2019-04-23T11:46:49.273Z,30.92
2019-04-23T11:54:21.394Z,31.11
2019-04-23T11:57:14.171Z,31.88
2019-04-23T12:02:16.975Z,30.44
2019-04-23T12:05:23.062Z,30.73
2019-04-23T12:08:04.255Z,30.35
2019-04-23T12:11:15.236Z,30.17
2019-04-23T12:13:35.858Z,30.48
2019-04-23T12:16:13.223Z,30.89
2019-04-23T12:21:34.944Z,31.96
2019-04-23T12:26:40.767Z,32.17
2019-04-23T12:29:13.643Z,31.48
2019-04-23T12:31:47.706Z,31.76
2019-04-23T12:34:31.961Z,32.14
2019-04-23T12:36:50.975Z,32.25
2019-04-23T12:39:32.911Z,32.56
2019-04-23T12:42:25.468Z,32.74
2019-04-23T12:44:51.675Z,33.28
2019-04-23T12:47:25.406Z,33.58
2019-04-23T12:55:06.859Z,33.59
2019-04-23T13:00:16.913Z,33.25
2019-04-23T13:05:31.359Z,33.24
2019-04-23T13:15:53.673Z,34.33
2019-04-23T13:18:17.573Z,34.49
2019-04-23T13:20:51.595Z,34.54
2019-04-23T13:23:32.600Z,34.58
2019-04-23T13:26:16.108Z,34.20
2019-04-23T13:29:07.804Z,33.96
2019-04-23T13:31:16.283Z,33.87
2019-04-23T13:33:51.490Z,33.69
2019-04-23T13:36:34.895Z,33.63
2019-04-23T13:39:02.322Z,33.63
2019-04-23T13:41:40.605Z,33.79
2019-04-23T13:44:14.058Z,33.59
2019-04-23T13:46:56.116Z,33.42
2019-04-23T13:49:28.387Z,33.46
2019-04-23T13:51:54.962Z,33.34
2019-04-23T13:54:56.483Z,33.06
2019-04-23T13:57:32.601Z,33.35
2019-04-23T13:59:44.370Z,33.39
2019-04-23T14:02:31.274Z,33.33
2019-04-23T14:07:48.364Z,33.25
2019-04-23T14:10:20.188Z,33.24
2019-04-23T14:13:08.286Z,33.33
2019-04-23T14:15:36.277Z,33.78
2019-04-23T14:18:19.745Z,33.70
2019-04-23T14:20:34.808Z,33.93
2019-04-23T14:23:12.890Z,33.91
2019-04-23T14:26:05.221Z,33.50
2019-04-23T14:31:01.112Z,33.21
2019-04-23T14:33:52.616Z,32.69
2019-04-23T14:36:07.758Z,32.88
2019-04-23T14:39:04.219Z,33.07
2019-04-23T14:43:57.942Z,33.08
2019-04-23T14:49:05.473Z,33.06
2019-04-23T14:51:38.812Z,33.18
2019-04-23T14:54:17.379Z,33.17
2019-04-23T14:56:51.459Z,33.36
2019-04-23T15:01:55.096Z,33.30
2019-04-23T15:04:31.991Z,33.48
2019-04-23T15:12:22.467Z,33.54
2019-04-23T15:15:09.660Z,34.05
2019-04-23T15:17:28.468Z,34.00
2019-04-23T15:20:11.634Z,33.96
2019-04-23T15:23:02.287Z,34.10
2019-04-23T15:30:36.823Z,34.22
2019-04-23T15:33:23.677Z,34.28
2019-04-23T15:38:36.007Z,34.43
2019-04-23T15:41:01.833Z,34.52
2019-04-23T15:43:32.688Z,34.72
2019-04-23T15:46:14.754Z,34.78
2019-04-23T15:48:42.442Z,34.68
2019-04-23T15:51:26.461Z,34.75
2019-04-23T15:53:52.843Z,34.76
2019-04-23T15:59:13.533Z,34.77
2019-04-23T16:01:34.042Z,34.73
2019-04-23T16:03:45.309Z,34.79
2019-04-23T16:06:22.170Z,34.80
2019-04-23T16:09:11.111Z,34.90
2019-04-23T16:11:49.572Z,34.47
2019-04-23T16:14:34.894Z,34.64
2019-04-23T16:17:08.321Z,34.58
2019-04-23T16:20:00.160Z,34.74
2019-04-23T16:22:26.858Z,34.74
2019-04-23T16:25:06.868Z,35.00
2019-04-23T16:27:29.157Z,34.99
2019-04-23T16:30:14.219Z,35.02
2019-04-23T16:38:52.233Z,35.28
2019-04-23T16:41:24.382Z,35.45
2019-04-23T16:43:58.589Z,35.58
2019-04-23T16:46:28.565Z,35.85
2019-04-23T16:51:32.428Z,37.33
2019-04-23T16:54:19.098Z,39.28
2019-04-23T16:57:15.247Z,40.65
2019-04-23T17:02:03.825Z,42.92
2019-04-23T17:04:30.775Z,43.85
2019-04-23T17:07:02.445Z,43.20
2019-04-23T17:12:13.725Z,42.31
2019-04-23T17:14:54.540Z,42.19
2019-04-23T17:17:18.509Z,41.38
2019-04-23T17:20:08.915Z,41.12
2019-04-23T17:22:33.807Z,40.73
2019-04-23T17:27:49.030Z,39.67
2019-04-23T17:30:19.603Z,38.82
2019-04-23T17:33:13.572Z,38.24
2019-04-23T17:36:13.265Z,38.30
2019-04-23T17:41:33.118Z,38.17
2019-04-23T17:44:14.244Z,37.76
2019-04-23T17:46:42.715Z,37.79
2019-04-23T17:49:16.926Z,37.77
2019-04-23T17:51:52.010Z,37.97
2019-04-23T17:54:24.758Z,37.68
2019-04-23T17:57:07.527Z,37.90
2019-04-23T18:00:05.456Z,37.95
2019-04-23T18:05:07.176Z,38.12
2019-04-23T18:10:28.847Z,38.27
2019-04-23T18:15:38.087Z,38.58
2019-04-23T18:18:02.147Z,38.74
2019-04-23T18:20:55.979Z,39.13
2019-04-23T18:23:26.148Z,39.29
2019-04-23T18:26:05.510Z,39.70
2019-04-23T18:28:46.069Z,39.95
2019-04-23T18:31:31.428Z,39.99
2019-04-23T18:34:13.728Z,40.06
2019-04-23T18:36:38.787Z,40.14
2019-04-23T18:39:22.248Z,40.22
2019-04-23T18:42:02.512Z,40.40
2019-04-23T18:44:38.629Z,40.51
2019-04-23T18:47:07.059Z,40.73
2019-04-23T18:49:48.051Z,40.77
2019-04-23T18:52:26.130Z,40.80
2019-04-23T18:54:56.973Z,41.06
2019-04-23T18:57:18.394Z,41.20
2019-04-23T19:00:07.502Z,41.26
2019-04-23T19:03:12.785Z,41.30
2019-04-23T19:06:30.380Z,41.29
2019-04-23T19:14:40.823Z,41.42
2019-04-23T19:19:33.563Z,41.01
2019-04-23T19:24:39.075Z,40.80
2019-04-23T19:27:27.555Z,40.61
2019-04-23T19:30:28.024Z,40.64
2019-04-23T19:32:50.660Z,40.43
2019-04-23T19:35:45.388Z,40.22
2019-04-23T19:40:40.418Z,40.08
2019-04-23T19:43:11.190Z,40.06
2019-04-23T19:45:49.713Z,39.73
2019-04-23T19:48:27.111Z,39.79
2019-04-23T19:50:57.505Z,39.53
2019-04-23T19:56:15.909Z,39.41
2019-04-23T19:58:51.689Z,39.33
2019-04-23T20:03:52.499Z,39.24
2019-04-23T20:06:44.203Z,38.94
2019-04-23T20:13:01.968Z,38.99
2019-04-23T20:15:15.894Z,39.00
2019-04-23T20:17:56.631Z,39.00
2019-04-23T20:20:33.763Z,38.89
2019-04-23T20:23:14.031Z,38.89
2019-04-23T20:33:18.881Z,38.75
2019-04-23T20:49:47.121Z,38.40
2019-04-23T20:52:32.021Z,38.35
2019-04-23T20:55:01.145Z,38.42
2019-04-23T20:57:55.527Z,38.42
2019-04-23T21:00:49.816Z,38.33
2019-04-23T21:03:39.085Z,38.38
2019-04-23T21:06:04.394Z,38.43
2019-04-23T21:08:53.769Z,38.39
2019-04-23T21:11:32.584Z,38.58
2019-04-23T21:16:33.765Z,38.77
2019-04-23T21:18:58.569Z,38.93
2019-04-23T21:22:06.098Z,39.13
2019-04-23T21:24:42.448Z,39.24
2019-04-23T21:27:29.855Z,39.45
2019-04-23T21:30:09.170Z,39.57
2019-04-23T21:32:45.303Z,39.78
2019-04-23T21:35:39.153Z,39.89
2019-04-23T21:43:57.555Z,40.29
2019-04-23T21:49:09.188Z,40.80
2019-04-23T21:51:45.843Z,40.99
2019-04-23T21:53:58.723Z,41.10
2019-04-23T21:56:44.800Z,41.21
2019-04-23T21:59:09.889Z,41.32
2019-04-23T22:01:54.729Z,41.41
2019-04-23T22:04:40.073Z,41.36
2019-04-23T22:07:11.973Z,41.62
2019-04-23T22:14:50.449Z,41.89
2019-04-23T22:17:33.226Z,42.03
2019-04-23T22:22:52.914Z,42.34
2019-04-23T22:25:22.239Z,42.37
2019-04-23T22:27:54.105Z,42.51
2019-04-23T22:30:30.473Z,42.64
2019-04-23T22:33:11.236Z,42.71
2019-04-23T22:35:52.159Z,42.83
2019-04-23T22:38:20.426Z,42.95
2019-04-23T22:40:56.341Z,43.07
2019-04-23T22:43:37.699Z,43.16
2019-04-23T22:46:08.791Z,43.17
2019-04-23T22:49:04.030Z,43.21
2019-04-23T22:51:30.962Z,43.12
2019-04-23T22:56:45.017Z,43.31
2019-04-23T22:59:26.784Z,43.29
2019-04-23T23:02:00.401Z,43.29
2019-04-23T23:04:31.155Z,43.35
2019-04-23T23:07:24.508Z,43.29
2019-04-23T23:09:43.944Z,43.39
2019-04-23T23:12:21.570Z,43.28
2019-04-23T23:15:06.905Z,43.39
2019-04-23T23:17:43.023Z,43.59
2019-04-23T23:22:58.859Z,43.39
2019-04-23T23:28:06.135Z,43.46
2019-04-23T23:30:38.867Z,43.50
2019-04-23T23:33:12.990Z,43.63
2019-04-23T23:35:44.469Z,43.70
2019-04-23T23:40:57.111Z,43.77
2019-04-23T23:43:29.706Z,43.84
2019-04-23T23:46:15.213Z,43.81
2019-04-23T23:48:34.999Z,43.94
2019-04-23T23:51:18.754Z,44.06
2019-04-23T23:53:58.540Z,44.18
2019-04-23T23:56:20.559Z,44.29
2019-04-23T23:59:04.968Z,44.41
